Time;durP1;ratioP1;P1;durP2;ratioP2;P2;SDS_P1;SDS_P2;PMS_P1;PMS_P2;Temp;Humidity;BMP_temperature;BMP_pressure;BME280_temperature;BME280_humidity;BME280_pressure;Samples;Min_cycle;Max_cycle;Signal;HPM_P1;HPM_P2
2024/03/08 00:01:36;;;;;;;48.33;19.67;;;-0.50;99.90;;;;;;4415654;28;659603;-72
2024/03/08 00:04:23;;;;;;;43.87;19.70;;;-0.50;99.90;;;;;;4397117;28;660684;-72
2024/03/08 00:07:10;;;;;;;52.13;20.13;;;-0.50;99.90;;;;;;4429903;28;660391;-72
2024/03/08 00:09:58;;;;;;;48.90;20.40;;;-0.50;99.90;;;;;;4405907;28;660540;-72
2024/03/08 00:12:46;;;;;;;49.63;21.30;;;-0.40;99.90;;;;;;4425765;28;661039;-72
2024/03/08 00:15:34;;;;;;;52.03;19.87;;;-0.50;1.00;;;;;;4403955;28;659760;-72
2024/03/08 00:18:22;;;;;;;44.53;18.90;;;-0.50;99.90;;;;;;4429499;28;659132;-72
2024/03/08 00:21:10;;;;;;;44.67;19.17;;;-0.50;65.90;;;;;;4411666;28;660458;-73
2024/03/08 00:23:58;;;;;;;48.00;20.00;;;-0.50;99.90;;;;;;4430383;28;659770;-72
2024/03/08 00:26:45;;;;;;;44.17;19.33;;;-0.50;99.90;;;;;;4422632;28;659754;-72
2024/03/08 00:29:32;;;;;;;43.13;19.57;;;-0.50;99.90;;;;;;4417403;28;659796;-72
2024/03/08 00:32:24;;;;;;;47.93;20.57;;;-0.40;99.90;;;;;;4427111;28;659810;-73
2024/03/08 00:35:12;;;;;;;49.97;20.53;;;-0.40;99.90;;;;;;4398544;28;660536;-72
2024/03/08 00:37:59;;;;;;;42.77;18.93;;;-0.40;99.90;;;;;;4406998;28;660786;-72
2024/03/08 00:40:46;;;;;;;49.40;21.17;;;-0.30;48.90;;;;;;4428822;28;659229;-72
2024/03/08 00:43:34;;;;;;;49.43;20.87;;;-0.30;1.00;;;;;;4404091;28;659611;-72
2024/03/08 00:46:21;;;;;;;43.17;20.43;;;-0.30;1.00;;;;;;4429619;28;659492;-72
2024/03/08 00:49:10;;;;;;;49.07;19.47;;;-0.30;1.00;;;;;;4399024;28;658670;-72
2024/03/08 00:51:57;;;;;;;45.28;19.45;;;-0.20;1.00;;;;;;4412583;28;658731;-72
2024/03/08 00:54:45;;;;;;;43.80;19.60;;;-0.20;1.00;;;;;;4428870;28;659162;-72
2024/03/08 00:57:32;;;;;;;51.13;18.63;;;-0.30;1.00;;;;;;4425157;28;659075;-72
2024/03/08 01:00:21;;;;;;;41.50;17.87;;;-0.30;1.00;;;;;;4405504;28;658539;-72
2024/03/08 01:03:08;;;;;;;41.57;18.80;;;-0.30;1.00;;;;;;4400727;28;658855;-72
2024/03/08 01:05:57;;;;;;;43.40;19.07;;;-0.30;1.00;;;;;;4419416;28;659270;-72
2024/03/08 01:08:44;;;;;;;42.17;18.47;;;-0.30;1.00;;;;;;4401315;28;658489;-72
2024/03/08 01:11:32;;;;;;;44.93;20.10;;;-0.30;1.00;;;;;;4422961;28;659245;-72
2024/03/08 01:14:19;;;;;;;40.97;18.17;;;-0.30;1.00;;;;;;4392528;28;658969;-72
2024/03/08 01:17:06;;;;;;;41.53;18.80;;;-0.30;99.90;;;;;;4420586;28;659127;-72
2024/03/08 01:19:54;;;;;;;43.90;16.77;;;-0.30;99.90;;;;;;4403951;28;660092;-72
2024/03/08 01:22:42;;;;;;;36.57;15.57;;;-0.30;99.90;;;;;;4417800;28;659769;-72
2024/03/08 01:25:31;;;;;;;41.27;17.47;;;-0.30;99.90;;;;;;4405050;28;659673;-72
2024/03/08 01:28:19;;;;;;;40.67;17.90;;;-0.30;99.90;;;;;;4397748;28;660443;-72
2024/03/08 01:31:06;;;;;;;35.67;16.33;;;-0.20;99.90;;;;;;4420941;28;659899;-72
2024/03/08 01:33:53;;;;;;;33.60;15.57;;;-0.20;99.90;;;;;;4396257;28;659562;-72
2024/03/08 01:36:40;;;;;;;35.30;14.37;;;-0.20;99.90;;;;;;4427028;28;660659;-72
2024/03/08 01:39:29;;;;;;;33.70;15.77;;;-0.20;1.00;;;;;;4406450;28;659980;-72
2024/03/08 01:42:17;;;;;;;39.03;15.73;;;-0.20;1.00;;;;;;4424487;28;658746;-72
2024/03/08 01:45:06;;;;;;;43.60;16.80;;;-0.20;1.00;;;;;;4397302;28;660443;-72
2024/03/08 01:47:53;;;;;;;45.20;18.93;;;-0.20;1.00;;;;;;4407425;28;659687;-72
2024/03/08 01:50:40;;;;;;;44.23;17.83;;;-0.30;1.00;;;;;;4422660;28;659643;-72
2024/03/08 01:53:27;;;;;;;37.07;17.20;;;-0.40;1.00;;;;;;4385432;28;658836;-72
2024/03/08 01:56:16;;;;;;;40.87;17.93;;;-0.40;1.00;;;;;;4400983;28;659030;-72
2024/03/08 01:59:03;;;;;;;44.97;18.90;;;-0.50;99.90;;;;;;4382514;28;658972;-72
2024/03/08 02:01:51;;;;;;;50.43;19.87;;;-0.50;99.90;;;;;;4403220;28;660693;-72
2024/03/08 02:04:39;;;;;;;37.20;16.17;;;-0.50;99.90;;;;;;4380470;28;659404;-72
2024/03/08 02:07:26;;;;;;;47.03;17.00;;;-0.40;99.90;;;;;;4403506;28;660154;-72
2024/03/08 02:10:13;;;;;;;38.40;17.77;;;-0.30;99.90;;;;;;4397517;28;659809;-72
2024/03/08 02:13:02;;;;;;;41.23;17.83;;;-0.30;99.90;;;;;;4411293;28;661112;-72
2024/03/08 02:15:56;;;;;;;40.90;16.53;;;-0.30;99.90;;;;;;4393313;28;660381;-72
2024/03/08 02:18:43;;;;;;;36.13;15.48;;;-0.30;12.50;;;;;;4375454;28;660227;-72
2024/03/08 02:21:31;;;;;;;35.77;17.30;;;-0.20;1.00;;;;;;4420025;28;660895;-72
2024/03/08 02:24:19;;;;;;;35.97;16.50;;;-0.20;1.00;;;;;;4399645;28;658853;-72
2024/03/08 02:27:06;;;;;;;38.10;15.97;;;-0.30;1.00;;;;;;4414293;28;659055;-72
2024/03/08 02:29:55;;;;;;;38.07;17.13;;;-0.20;1.00;;;;;;4403344;28;658612;-72
2024/03/08 02:32:43;;;;;;;36.17;16.10;;;-0.20;99.90;;;;;;4405704;28;659338;-72
2024/03/08 02:35:30;;;;;;;42.10;17.30;;;-0.20;99.90;;;;;;4420531;28;660682;-72
2024/03/08 02:38:19;;;;;;;37.80;15.93;;;-0.20;1.00;;;;;;4399829;28;659600;-72
2024/03/08 02:41:06;;;;;;;35.07;16.37;;;-0.20;1.00;;;;;;4418225;28;658145;-72
2024/03/08 02:43:55;;;;;;;35.87;16.47;;;-0.20;99.90;;;;;;4403427;28;659050;-72
2024/03/08 02:46:42;;;;;;;38.23;16.93;;;-0.20;99.90;;;;;;4411073;28;659371;-72
2024/03/08 02:49:30;;;;;;;43.93;17.20;;;-0.30;1.00;;;;;;4425622;28;660498;-72
2024/03/08 02:52:17;;;;;;;37.50;17.15;;;-0.30;1.00;;;;;;4394082;28;659106;-72
2024/03/08 02:55:08;;;;;;;37.87;16.73;;;-0.20;1.00;;;;;;4423859;28;659072;-72
2024/03/08 02:57:55;;;;;;;41.97;16.87;;;-0.20;1.00;;;;;;4394017;28;659839;-72
2024/03/08 03:00:44;;;;;;;35.27;14.67;;;-0.20;1.00;;;;;;4408237;28;658850;-72
2024/03/08 03:03:32;;;;;;;60.80;20.87;;;-0.20;99.90;;;;;;4404808;28;659116;-72
2024/03/08 03:06:20;;;;;;;66.23;22.13;;;-0.20;99.90;;;;;;4389507;28;659841;-72
2024/03/08 03:09:10;;;;;;;70.97;23.47;;;-0.20;99.90;;;;;;4406028;28;660349;-72
2024/03/08 03:11:59;;;;;;;63.93;22.97;;;-0.20;1.00;;;;;;4399431;28;659675;-72
2024/03/08 03:14:46;;;;;;;43.13;19.20;;;-0.20;1.00;;;;;;4423698;28;659194;-72
2024/03/08 03:17:34;;;;;;;63.20;23.67;;;-0.20;1.00;;;;;;4402110;28;659311;-72
2024/03/08 03:20:26;;;;;;;42.50;19.07;;;-0.20;99.90;;;;;;4404711;28;658886;-72
2024/03/08 03:23:14;;;;;;;45.63;18.67;;;-0.20;99.90;;;;;;4404073;28;659811;-72
2024/03/08 03:26:02;;;;;;;39.93;18.47;;;-0.10;99.90;;;;;;4409524;28;659853;-72
2024/03/08 03:28:51;;;;;;;46.47;20.43;;;-0.10;99.90;;;;;;4379858;28;660667;-72
2024/03/08 03:31:38;;;;;;;48.97;19.47;;;-0.20;99.90;;;;;;4397043;28;660178;-72
2024/03/08 03:34:25;;;;;;;48.07;20.53;;;-0.10;99.90;;;;;;4406033;28;660580;-72
2024/03/08 03:37:13;;;;;;;43.97;19.90;;;-0.20;99.90;;;;;;4406619;28;659879;-72
2024/03/08 03:40:01;;;;;;;48.37;18.43;;;-0.10;99.90;;;;;;4422239;28;660374;-72
2024/03/08 03:42:48;;;;;;;39.28;17.83;;;-0.10;99.90;;;;;;4406040;28;659907;-72
2024/03/08 03:45:37;;;;;;;49.13;19.93;;;-0.10;99.90;;;;;;4419225;28;659969;-72
2024/03/08 03:48:24;;;;;;;49.20;19.50;;;-0.10;99.90;;;;;;4395942;28;660730;-72
2024/03/08 03:51:11;;;;;;;47.97;18.33;;;-0.10;99.90;;;;;;4427875;28;659646;-72
2024/03/08 03:53:58;;;;;;;44.90;18.00;;;-0.20;99.90;;;;;;4383593;28;659899;-72
2024/03/08 03:56:46;;;;;;;36.90;14.27;;;-0.20;99.90;;;;;;4417807;28;660332;-72
2024/03/08 03:59:33;;;;;;;31.57;14.73;;;-0.20;99.90;;;;;;4387182;28;660266;-72
2024/03/08 04:02:22;;;;;;;43.28;17.38;;;-0.20;78.70;;;;;;4423819;28;659802;-72
2024/03/08 04:05:10;;;;;;;39.50;16.47;;;-0.20;99.90;;;;;;4391297;28;659955;-72
2024/03/08 04:07:57;;;;;;;36.08;15.48;;;-0.20;99.90;;;;;;4406953;28;660169;-72
2024/03/08 04:10:45;;;;;;;47.30;17.63;;;-0.20;99.90;;;;;;4415987;28;660031;-72
2024/03/08 04:13:32;;;;;;;42.63;17.53;;;-0.20;99.90;;;;;;4407455;28;661074;-72
2024/03/08 04:16:20;;;;;;;34.27;15.53;;;-0.20;42.90;;;;;;4407050;28;659903;-72
2024/03/08 04:19:10;;;;;;;32.23;14.70;;;-0.10;99.90;;;;;;4424814;28;659978;-72
2024/03/08 04:21:57;;;;;;;36.17;15.60;;;-0.20;63.60;;;;;;4425903;28;659789;-72
2024/03/08 04:24:45;;;;;;;32.67;15.47;;;-0.30;99.90;;;;;;4424120;28;659893;-72
2024/03/08 04:27:34;;;;;;;50.87;18.10;;;-0.20;49.50;;;;;;4384064;28;660307;-72
2024/03/08 04:30:21;;;;;;;60.13;19.90;;;-0.30;99.90;;;;;;4404695;28;660513;-71
2024/03/08 04:33:08;;;;;;;23.63;10.27;;;-0.30;8.20;;;;;;4390027;28;661011;-72
2024/03/08 04:35:57;;;;;;;38.67;14.93;;;-0.30;51.80;;;;;;4405200;28;659606;-72
2024/03/08 04:38:45;;;;;;;40.20;15.10;;;-0.40;99.90;;;;;;4382100;28;660188;-72
2024/03/08 04:41:34;;;;;;;72.53;22.73;;;-0.30;99.90;;;;;;4399242;28;660275;-72
2024/03/08 04:44:21;;;;;;;83.03;23.63;;;-0.30;99.90;;;;;;4407034;28;660036;-72
2024/03/08 04:47:08;;;;;;;40.03;17.07;;;-0.30;99.90;;;;;;4389297;28;660232;-72
2024/03/08 04:49:56;;;;;;;41.40;17.27;;;-0.30;50.10;;;;;;4423202;28;660463;-72
2024/03/08 04:52:44;;;;;;;78.97;21.40;;;-0.30;14.80;;;;;;4395209;28;660311;-72
2024/03/08 04:55:31;;;;;;;105.30;28.83;;;-0.30;92.00;;;;;;4387970;28;660007;-72
2024/03/08 04:58:19;;;;;;;37.43;17.70;;;-0.40;99.90;;;;;;4373668;28;661161;-72
2024/03/08 05:01:06;;;;;;;49.30;17.70;;;-0.40;99.90;;;;;;4393727;28;661011;-72
2024/03/08 05:03:55;;;;;;;46.53;18.83;;;-0.40;99.90;;;;;;4388047;28;659555;-72
2024/03/08 05:06:42;;;;;;;55.47;18.87;;;-0.40;99.90;;;;;;4394262;28;659882;-72
2024/03/08 05:09:32;;;;;;;79.40;21.67;;;-0.40;99.90;;;;;;4392761;28;659005;-72
2024/03/08 05:12:19;;;;;;;88.90;26.63;;;-0.40;99.90;;;;;;4381678;28;661553;-72
2024/03/08 05:15:08;;;;;;;61.53;20.48;;;-0.40;99.90;;;;;;4394931;28;659017;-72
2024/03/08 05:17:55;;;;;;;66.90;21.40;;;-0.30;99.90;;;;;;4377034;28;660117;-72
2024/03/08 05:20:43;;;;;;;50.83;17.73;;;-0.40;99.90;;;;;;4385604;28;659657;-72
2024/03/08 05:23:30;;;;;;;64.83;20.43;;;-0.40;99.90;;;;;;4406088;28;660253;-72
2024/03/08 05:26:19;;;;;;;71.07;22.67;;;-0.40;99.90;;;;;;4377935;28;659368;-72
2024/03/08 05:29:06;;;;;;;70.40;21.47;;;-0.40;99.90;;;;;;4401682;28;660190;-72
2024/03/08 05:31:53;;;;;;;51.13;18.10;;;-0.40;99.90;;;;;;4387498;28;659998;-72
2024/03/08 05:34:40;;;;;;;55.67;17.55;;;-0.40;99.90;;;;;;4402329;28;660685;-71
2024/03/08 05:37:28;;;;;;;47.27;16.17;;;-0.40;99.90;;;;;;4366924;28;660110;-72
2024/03/08 05:40:15;;;;;;;36.93;16.00;;;-0.40;99.90;;;;;;4398486;28;661230;-72
2024/03/08 05:43:05;;;;;;;36.93;15.20;;;-0.50;99.90;;;;;;4379435;28;660145;-71
2024/03/08 05:45:52;;;;;;;34.17;15.53;;;-0.50;99.90;;;;;;4379037;28;659321;-72
2024/03/08 05:48:40;;;;;;;46.27;17.47;;;-0.40;99.90;;;;;;4386068;28;660693;-72
2024/03/08 05:51:27;;;;;;;34.77;15.13;;;-0.40;99.90;;;;;;4390650;28;659656;-72
2024/03/08 05:54:14;;;;;;;49.03;19.23;;;-0.50;99.90;;;;;;4392970;28;659943;-72
2024/03/08 05:57:01;;;;;;;28.50;10.68;;;-0.50;99.90;;;;;;4397071;28;659375;-72
2024/03/08 05:59:50;;;;;;;33.67;15.43;;;-0.40;99.90;;;;;;4391831;28;660916;-72
2024/03/08 06:02:40;;;;;;;37.00;16.20;;;-0.40;1.00;;;;;;4406601;28;660051;-72
2024/03/08 06:05:27;;;;;;;38.08;16.27;;;-0.40;1.00;;;;;;4395266;28;658683;-72
2024/03/08 06:08:15;;;;;;;45.00;17.87;;;-0.40;1.00;;;;;;4407868;28;659000;-72
2024/03/08 06:11:02;;;;;;;39.63;14.05;;;-0.40;1.00;;;;;;4372490;28;659142;-71
2024/03/08 06:13:50;;;;;;;46.83;17.83;;;-0.30;1.00;;;;;;4397009;28;658824;-72
2024/03/08 06:16:39;;;;;;;39.90;17.30;;;-0.30;1.00;;;;;;4391437;28;659060;-72
2024/03/08 06:19:26;;;;;;;36.80;16.60;;;-0.30;1.00;;;;;;4399816;28;658621;-72
2024/03/08 06:22:13;;;;;;;37.67;17.47;;;-0.30;1.00;;;;;;4378398;28;658934;-72
2024/03/08 06:25:01;;;;;;;34.20;14.47;;;-0.30;1.00;;;;;;4398809;28;660006;-71
2024/03/08 06:27:48;;;;;;;37.77;15.47;;;-0.30;1.00;;;;;;4371749;28;658866;-71
2024/03/08 06:30:35;;;;;;;36.73;15.50;;;-0.30;99.90;;;;;;4407216;28;659314;-71
2024/03/08 06:33:26;;;;;;;43.10;17.67;;;-0.40;99.90;;;;;;4390191;28;660468;-71
2024/03/08 06:36:13;;;;;;;38.40;16.17;;;-0.40;99.90;;;;;;4379885;28;660032;-71
2024/03/08 06:39:00;;;;;;;48.20;16.43;;;-0.40;99.90;;;;;;4405582;28;660933;-72
2024/03/08 06:41:51;;;;;;;42.97;17.80;;;-0.40;99.90;;;;;;4391996;28;659614;-72
2024/03/08 06:44:45;;;;;;;37.90;16.27;;;-0.30;99.90;;;;;;4382398;28;659487;-72
2024/03/08 06:47:33;;;;;;;35.30;15.50;;;-0.30;99.90;;;;;;4357557;28;660097;-71
2024/03/08 06:50:21;;;;;;;44.60;17.77;;;-0.40;99.90;;;;;;4398667;28;660858;-71
2024/03/08 06:53:09;;;;;;;37.73;14.27;;;-0.30;99.90;;;;;;4397566;28;659624;-72
2024/03/08 06:55:57;;;;;;;45.63;17.20;;;-0.30;99.90;;;;;;4423014;28;659319;-72
2024/03/08 06:58:45;;;;;;;49.37;18.60;;;-0.40;99.90;;;;;;4378775;28;660227;-72
2024/03/08 07:01:34;;;;;;;71.67;22.30;;;-0.30;99.90;;;;;;4418175;28;659852;-72
2024/03/08 07:04:26;;;;;;;44.00;18.47;;;-0.20;99.90;;;;;;4399802;28;660123;-72
2024/03/08 07:07:15;;;;;;;42.97;17.70;;;-0.20;5.10;;;;;;4404101;28;659707;-71
2024/03/08 07:10:02;;;;;;;38.47;17.30;;;-0.20;99.90;;;;;;4405769;28;658767;-71
2024/03/08 07:12:50;;;;;;;27.43;11.17;;;-0.10;49.10;;;;;;4411335;28;660814;-72
2024/03/08 07:15:37;;;;;;;33.13;15.17;;;-0.20;1.00;;;;;;4404720;28;659567;-72
2024/03/08 07:18:24;;;;;;;54.33;21.07;;;-0.20;99.90;;;;;;4383544;28;659200;-72
2024/03/08 07:21:11;;;;;;;41.63;18.13;;;-0.20;99.90;;;;;;4408706;28;659389;-72
2024/03/08 07:24:13;;;;;;;55.53;21.63;;;-0.20;99.90;;;;;;4386732;28;660115;-72
2024/03/08 07:27:00;;;;;;;43.07;19.40;;;-0.10;99.90;;;;;;4391577;28;660183;-71
2024/03/08 07:29:48;;;;;;;51.47;19.87;;;-0.20;50.20;;;;;;4393552;28;659863;-71
2024/03/08 07:32:35;;;;;;;58.03;18.13;;;-0.10;99.90;;;;;;4403671;28;660060;-71
2024/03/08 07:35:22;;;;;;;49.67;18.73;;;-0.20;96.00;;;;;;4399169;28;659852;-71
2024/03/08 07:38:11;;;;;;;46.03;18.03;;;-0.10;99.90;;;;;;4412699;28;660627;-71
2024/03/08 07:41:00;;;;;;;43.83;17.20;;;-0.10;1.00;;;;;;4389215;28;659591;-72
2024/03/08 07:43:48;;;;;;;43.00;16.50;;;-0.20;6.40;;;;;;4402614;28;659138;-71
2024/03/08 07:46:36;;;;;;;42.70;18.30;;;-0.10;99.90;;;;;;4414103;28;659590;-71
2024/03/08 07:49:24;;;;;;;40.90;17.77;;;-0.10;99.90;;;;;;4386363;28;660020;-71
2024/03/08 07:52:15;;;;;;;48.13;21.03;;;0.00;99.70;;;;;;4410994;28;660351;-72
2024/03/08 07:55:03;;;;;;;42.57;18.73;;;0.00;55.00;;;;;;4369801;28;658604;-72
2024/03/08 07:57:52;;;;;;;50.00;19.83;;;0.10;99.90;;;;;;4408863;28;659258;-72
2024/03/08 08:00:39;;;;;;;46.17;17.43;;;0.00;1.00;;;;;;4385973;28;658799;-72
2024/03/08 08:03:27;;;;;;;75.63;24.53;;;0.00;9.10;;;;;;4415975;28;657418;-71
2024/03/08 08:06:15;;;;;;;44.33;19.23;;;0.10;47.60;;;;;;4390305;28;657522;-72
2024/03/08 08:09:02;;;;;;;59.13;20.90;;;0.10;1.00;;;;;;4386386;28;658427;-71
2024/03/08 08:11:50;;;;;;;62.47;21.60;;;0.20;99.90;;;;;;4411342;28;657671;-71
2024/03/08 08:14:39;;;;;;;51.13;20.43;;;0.30;1.00;;;;;;4396598;28;659520;-72
2024/03/08 08:17:26;;;;;;;55.67;20.13;;;0.20;1.00;;;;;;4408483;28;657294;-71
2024/03/08 08:20:13;;;;;;;71.70;22.83;;;0.20;1.00;;;;;;4387006;28;657150;-72
2024/03/08 08:23:00;;;;;;;42.97;19.17;;;0.30;1.00;;;;;;4407776;28;658064;-71
2024/03/08 08:25:49;;;;;;;40.10;18.03;;;0.30;99.90;;;;;;4384878;28;658224;-71
2024/03/08 08:28:38;;;;;;;50.50;20.40;;;0.40;99.90;;;;;;4407966;28;659305;-71
2024/03/08 08:31:26;;;;;;;48.70;20.13;;;0.40;99.90;;;;;;4389608;28;659540;-71
2024/03/08 08:34:14;;;;;;;41.73;17.53;;;0.60;99.90;;;;;;4388491;28;659339;-71
2024/03/08 08:37:01;;;;;;;36.43;17.07;;;0.60;99.90;;;;;;4407620;28;658556;-71
2024/03/08 08:39:49;;;;;;;36.22;15.73;;;0.70;99.90;;;;;;4389224;28;658413;-72
2024/03/08 08:42:37;;;;;;;37.70;17.63;;;0.80;99.90;;;;;;4404133;28;658342;-71
2024/03/08 08:45:24;;;;;;;33.20;14.40;;;1.10;99.90;;;;;;4381161;28;659235;-71
2024/03/08 08:48:13;;;;;;;43.67;18.20;;;1.40;1.00;;;;;;4408976;28;658180;-71
2024/03/08 08:51:00;;;;;;;43.93;17.27;;;1.50;99.90;;;;;;4389091;28;658193;-71
2024/03/08 08:53:47;;;;;;;32.53;12.80;;;1.50;1.00;;;;;;4396167;28;658615;-71
2024/03/08 08:56:35;;;;;;;40.47;17.45;;;1.70;1.00;;;;;;4404892;28;657563;-71
2024/03/08 08:59:25;;;;;;;36.27;16.97;;;1.70;1.00;;;;;;4399405;28;657819;-71
2024/03/08 09:02:12;;;;;;;38.83;17.00;;;2.00;99.90;;;;;;4394626;28;657294;-71
2024/03/08 09:05:01;;;;;;;41.80;18.80;;;2.20;99.90;;;;;;4390246;28;659516;-71
2024/03/08 09:07:49;;;;;;;44.67;18.47;;;2.50;14.20;;;;;;4390551;28;659118;-71
2024/03/08 09:10:39;;;;;;;45.20;19.47;;;2.70;99.90;;;;;;4405281;28;659106;-71
2024/03/08 09:13:26;;;;;;;41.83;17.80;;;2.60;1.00;;;;;;4368530;28;658993;-71
2024/03/08 09:16:13;;;;;;;38.73;18.03;;;2.80;1.00;;;;;;4386231;28;657701;-71
2024/03/08 09:19:00;;;;;;;47.20;19.77;;;2.80;1.00;;;;;;4379861;28;658054;-71
2024/03/08 09:21:49;;;;;;;45.07;19.00;;;2.70;1.00;;;;;;4392771;28;657875;-71
2024/03/08 09:24:36;;;;;;;49.90;19.73;;;3.00;1.00;;;;;;4408938;28;658210;-71
2024/03/08 09:27:24;;;;;;;40.97;17.90;;;3.60;1.00;;;;;;4388672;28;657583;-71
2024/03/08 09:30:13;;;;;;;26.77;11.80;;;4.00;99.90;;;;;;4401168;28;658555;-71
2024/03/08 09:33:00;;;;;;;39.20;17.17;;;4.10;99.90;;;;;;4376519;28;659708;-71
2024/03/08 09:35:48;;;;;;;40.60;17.47;;;4.00;1.00;;;;;;4382182;28;658781;-71
2024/03/08 09:38:36;;;;;;;41.17;17.77;;;3.80;1.00;;;;;;4392273;28;658724;-71
2024/03/08 09:41:23;;;;;;;37.00;17.80;;;3.70;99.90;;;;;;4380123;28;657906;-71
2024/03/08 09:44:11;;;;;;;41.85;19.27;;;4.20;1.00;;;;;;4403533;28;659750;-72
2024/03/08 09:46:58;;;;;;;47.53;21.40;;;4.90;99.90;;;;;;4376508;28;657569;-71
2024/03/08 09:49:45;;;;;;;42.57;19.77;;;5.40;1.00;;;;;;4386126;28;658263;-71
2024/03/08 09:52:33;;;;;;;46.03;19.60;;;5.60;99.90;;;;;;4391142;28;657715;-71
2024/03/08 09:55:22;;;;;;;48.97;20.43;;;5.40;99.90;;;;;;4414440;28;659394;-71
2024/03/08 09:58:26;;;;;;;50.63;21.17;;;4.90;99.90;;;;;;4381559;28;658340;-71
2024/03/08 10:01:14;;;;;;;49.13;21.67;;;5.40;1.00;;;;;;4348428;28;659057;-71
2024/03/08 10:04:01;;;;;;;54.57;22.47;;;5.30;99.90;;;;;;4406906;28;657555;-71
2024/03/08 10:06:48;;;;;;;50.23;21.47;;;5.40;99.90;;;;;;4387337;28;659326;-72
2024/03/08 10:09:35;;;;;;;53.20;23.47;;;5.70;99.90;;;;;;4404483;28;659576;-71
2024/03/08 10:12:24;;;;;;;53.92;24.02;;;4.80;1.00;;;;;;4364419;28;659155;-71
2024/03/08 10:15:12;;;;;;;62.60;25.20;;;4.90;99.90;;;;;;4402480;28;657843;-71
2024/03/08 10:17:59;;;;;;;51.23;21.73;;;5.10;99.90;;;;;;4377845;28;658881;-72
2024/03/08 10:20:46;;;;;;;44.37;20.57;;;5.30;7.90;;;;;;4405623;28;658743;-71
2024/03/08 10:23:34;;;;;;;34.50;14.40;;;5.60;99.90;;;;;;4384712;28;657549;-71
2024/03/08 10:26:21;;;;;;;49.67;23.07;;;6.10;80.00;;;;;;4404488;28;658864;-71
2024/03/08 10:29:10;;;;;;;54.03;23.13;;;6.60;99.90;;;;;;4382238;28;659153;-71
2024/03/08 10:31:57;;;;;;;51.13;20.43;;;6.70;1.00;;;;;;4392498;28;658826;-71
2024/03/08 10:34:45;;;;;;;56.47;23.57;;;6.90;1.00;;;;;;4404765;28;658505;-71
2024/03/08 10:37:33;;;;;;;46.27;21.80;;;7.30;1.00;;;;;;4397265;28;657731;-71
2024/03/08 10:40:20;;;;;;;44.87;21.27;;;7.10;1.00;;;;;;4402365;28;657856;-71
2024/03/08 10:43:08;;;;;;;46.80;22.03;;;7.10;1.00;;;;;;4380232;28;658393;-72
2024/03/08 10:46:06;;;;;;;52.77;24.97;;;7.80;1.00;;;;;;4397928;28;658159;-71
2024/03/08 10:48:53;;;;;;;48.80;20.90;;;8.20;1.00;;;;;;4371544;28;658154;-71
2024/03/08 10:51:41;;;;;;;44.10;20.93;;;8.50;1.00;;;;;;4397831;28;657606;-71
2024/03/08 10:54:29;;;;;;;40.83;20.23;;;8.50;99.90;;;;;;4366277;28;658280;-71
2024/03/08 10:57:17;;;;;;;39.50;19.47;;;9.00;99.90;;;;;;4397292;28;659059;-71
2024/03/08 11:00:07;;;;;;;43.73;21.10;;;9.20;99.90;;;;;;4382696;28;658444;-71
2024/03/08 11:02:56;;;;;;;41.63;19.43;;;9.20;99.90;;;;;;4371218;28;659463;-72
2024/03/08 11:05:43;;;;;;;57.60;25.00;;;9.30;99.90;;;;;;4373453;28;658610;-71
2024/03/08 11:08:32;;;;;;;45.73;20.47;;;8.80;99.90;;;;;;4392398;28;658832;-71
2024/03/08 11:11:30;;;;;;;39.90;17.27;;;8.80;99.90;;;;;;4388298;28;658482;-71
2024/03/08 11:14:44;;;;;;;50.10;22.93;;;9.20;99.90;;;;;;4367217;28;659509;-71
2024/03/08 11:17:47;;;;;;;43.47;19.93;;;9.10;99.90;;;;;;4375040;28;658948;-71
2024/03/08 11:20:37;;;;;;;40.33;17.93;;;9.60;99.90;;;;;;4337040;28;658683;-71
2024/03/08 11:23:25;;;;;;;38.27;17.70;;;9.60;99.90;;;;;;4371853;28;659380;-71
2024/03/08 11:26:19;;;;;;;36.10;18.10;;;9.90;99.90;;;;;;4383675;28;659131;-71
2024/03/08 11:29:36;;;;;;;46.50;19.90;;;9.50;99.90;;;;;;4388256;28;658590;-71
2024/03/08 11:32:23;;;;;;;42.10;19.43;;;9.40;99.90;;;;;;4358122;28;659115;-71
2024/03/08 11:35:19;;;;;;;39.23;18.80;;;9.20;99.90;;;;;;4403956;28;659762;-71
2024/03/08 11:38:08;;;;;;;39.10;18.17;;;9.70;99.90;;;;;;4379519;28;658403;-71
2024/03/08 11:40:58;;;;;;;32.37;15.77;;;10.20;99.90;;;;;;4371117;28;659703;-71
2024/03/08 11:43:45;;;;;;;34.53;15.07;;;9.00;99.90;;;;;;4370693;28;660443;-70
2024/03/08 11:46:33;;;;;;;33.63;16.03;;;8.20;1.00;;;;;;4375430;28;658799;-71
2024/03/08 11:49:20;;;;;;;32.33;16.67;;;9.10;1.00;;;;;;4394369;28;658578;-71
2024/03/08 11:52:12;;;;;;;36.17;16.57;;;10.50;99.90;;;;;;4383157;28;657458;-71
2024/03/08 11:55:00;;;;;;;34.30;14.53;;;10.70;99.90;;;;;;4389615;28;660222;-71
2024/03/08 11:57:48;;;;;;;34.73;17.03;;;10.50;99.90;;;;;;4399857;28;659849;-71
2024/03/08 12:00:38;;;;;;;38.13;18.23;;;10.00;99.90;;;;;;4417133;28;660869;-71
2024/03/08 12:03:25;;;;;;;37.30;16.87;;;9.00;99.90;;;;;;4394153;28;660620;-71
2024/03/08 12:06:13;;;;;;;37.63;17.53;;;9.50;99.90;;;;;;4413301;28;659104;-71
2024/03/08 12:09:00;;;;;;;25.57;11.77;;;10.90;99.90;;;;;;4427368;28;658669;-71
2024/03/08 12:11:50;;;;;;;31.08;16.02;;;11.00;99.90;;;;;;4404977;28;660274;-71
2024/03/08 12:14:37;;;;;;;32.13;16.60;;;10.80;99.90;;;;;;4386928;28;659906;-71
2024/03/08 12:17:25;;;;;;;28.80;14.43;;;11.00;99.90;;;;;;4420389;28;659737;-71
2024/03/08 12:20:14;;;;;;;33.00;16.70;;;11.90;99.90;;;;;;4414509;28;660653;-71
2024/03/08 12:23:01;;;;;;;32.17;13.67;;;11.00;99.90;;;;;;4415906;28;659738;-71
2024/03/08 12:25:48;;;;;;;32.40;16.23;;;9.20;99.90;;;;;;4407081;28;660436;-71
2024/03/08 12:28:37;;;;;;;32.13;15.83;;;10.50;99.90;;;;;;4429111;28;659894;-71
2024/03/08 12:31:25;;;;;;;21.10;10.03;;;10.00;99.90;;;;;;4402057;28;661250;-70
2024/03/08 12:34:13;;;;;;;36.40;16.10;;;10.20;99.90;;;;;;4403323;28;660137;-71
2024/03/08 12:37:00;;;;;;;40.60;17.03;;;10.10;99.90;;;;;;4421735;28;660938;-71
2024/03/08 12:39:47;;;;;;;30.75;15.18;;;11.30;99.90;;;;;;4405236;28;659668;-71
2024/03/08 12:42:35;;;;;;;29.97;14.80;;;11.10;99.90;;;;;;4418654;28;660939;-70
2024/03/08 12:45:24;;;;;;;28.03;14.03;;;10.90;99.90;;;;;;4412580;28;659700;-71
2024/03/08 12:48:15;;;;;;;29.53;14.73;;;12.20;99.90;;;;;;4395823;28;660343;-70
2024/03/08 12:51:03;;;;;;;31.75;15.40;;;12.50;99.90;;;;;;4389796;28;659462;-71
2024/03/08 12:53:55;;;;;;;62.20;20.20;;;13.20;99.90;;;;;;4422999;28;660032;-71
2024/03/08 12:56:42;;;;;;;30.20;14.73;;;14.10;99.90;;;;;;4384297;28;659870;-71
2024/03/08 12:59:30;;;;;;;28.97;15.30;;;13.50;99.90;;;;;;4420520;28;659988;-71
2024/03/08 13:02:18;;;;;;;36.80;17.20;;;12.00;99.90;;;;;;4420544;28;658956;-71
2024/03/08 13:05:06;;;;;;;37.60;16.53;;;12.60;99.90;;;;;;4393698;28;660440;-70
2024/03/08 13:07:54;;;;;;;33.33;16.47;;;12.10;99.90;;;;;;4398983;28;660044;-71
2024/03/08 13:10:43;;;;;;;30.97;14.23;;;11.90;99.90;;;;;;4422517;28;659872;-71
2024/03/08 13:13:30;;;;;;;30.37;15.80;;;13.30;99.90;;;;;;4404145;28;660320;-71
2024/03/08 13:16:19;;;;;;;27.75;14.50;;;12.70;99.90;;;;;;4401195;28;660053;-71
2024/03/08 13:19:07;;;;;;;27.37;14.63;;;12.90;99.90;;;;;;4420527;28;659977;-70
2024/03/08 13:21:54;;;;;;;32.43;15.87;;;13.00;99.90;;;;;;4404655;28;660266;-71
2024/03/08 13:24:42;;;;;;;29.70;15.47;;;13.20;99.90;;;;;;4422783;28;659202;-71
2024/03/08 13:27:29;;;;;;;31.80;16.50;;;13.70;99.90;;;;;;4393459;28;660318;-71
2024/03/08 13:30:18;;;;;;;31.20;15.80;;;13.40;99.90;;;;;;4417052;28;659079;-71
2024/03/08 13:33:06;;;;;;;28.47;15.23;;;13.70;99.90;;;;;;4393435;28;661152;-71
2024/03/08 13:35:57;;;;;;;32.80;15.73;;;13.50;99.90;;;;;;4400289;28;660123;-72
2024/03/08 13:38:44;;;;;;;34.77;16.23;;;12.20;99.90;;;;;;4403136;28;659409;-71
2024/03/08 13:41:31;;;;;;;30.23;15.43;;;10.90;99.90;;;;;;4410850;28;659412;-72
2024/03/08 13:44:18;;;;;;;41.70;18.57;;;11.50;99.90;;;;;;4402426;28;659585;-72
2024/03/08 13:47:07;;;;;;;32.67;15.83;;;13.50;99.90;;;;;;4415048;28;659988;-72
2024/03/08 13:49:54;;;;;;;30.27;15.70;;;13.60;99.90;;;;;;4402813;28;659714;-72
2024/03/08 13:52:44;;;;;;;30.73;15.70;;;13.40;99.90;;;;;;4414470;28;660038;-71
2024/03/08 13:55:31;;;;;;;35.70;18.13;;;13.40;99.90;;;;;;4402953;28;660063;-72
2024/03/08 13:58:20;;;;;;;30.93;13.97;;;13.20;99.90;;;;;;4398084;28;659994;-72
2024/03/08 14:01:11;;;;;;;33.67;16.33;;;12.60;99.90;;;;;;4423613;28;659533;-71
2024/03/08 14:03:59;;;;;;;30.73;15.07;;;11.90;99.90;;;;;;4401200;28;659775;-72
2024/03/08 14:06:46;;;;;;;40.03;16.90;;;11.70;99.90;;;;;;4420082;28;659321;-71
2024/03/08 14:09:37;;;;;;;34.40;16.67;;;12.40;99.90;;;;;;4402321;28;659761;-71